createdAt,value
2019-01-25T00:00:26.586Z,-4.30
2019-01-25T00:02:54.960Z,-4.30
2019-01-25T00:05:23.399Z,-4.30
2019-01-25T00:07:53.238Z,-4.30
2019-01-25T00:10:21.608Z,-4.30
2019-01-25T00:12:49.983Z,-4.30
2019-01-25T00:15:18.388Z,-4.40
2019-01-25T00:17:46.762Z,-4.40
2019-01-25T00:20:15.427Z,-4.40
2019-01-25T00:22:45.103Z,-4.40
2019-01-25T00:25:13.476Z,-4.50
2019-01-25T00:27:42.243Z,-4.40
2019-01-25T00:30:16.111Z,-4.40
2019-01-25T00:32:44.852Z,-4.30
2019-01-25T00:35:13.226Z,-4.30
2019-01-25T00:37:41.748Z,-4.30
2019-01-25T00:40:17.998Z,-4.30
2019-01-25T00:42:47.006Z,-4.30
2019-01-25T00:45:15.380Z,-4.30
2019-01-25T00:47:43.755Z,-4.30
2019-01-25T00:50:15.671Z,-4.30
2019-01-25T00:52:44.042Z,-4.30
2019-01-25T00:55:12.414Z,-4.30
2019-01-25T00:57:40.835Z,-4.30
2019-01-25T01:00:18.031Z,-4.30
2019-01-25T01:02:47.171Z,-4.40
2019-01-25T01:05:15.610Z,-4.40
2019-01-25T01:07:44.258Z,-4.40
2019-01-25T01:10:15.241Z,-4.40
2019-01-25T01:12:43.622Z,-4.40
2019-01-25T01:15:13.727Z,-4.40
2019-01-25T01:17:42.703Z,-4.40
2019-01-25T01:20:13.879Z,-4.40
2019-01-25T01:22:42.247Z,-4.40
2019-01-25T01:25:11.419Z,-4.40
2019-01-25T01:27:39.787Z,-4.40
2019-01-25T01:30:12.008Z,-4.30
2019-01-25T01:32:40.411Z,-4.30
2019-01-25T01:35:09.083Z,-4.30
2019-01-25T01:37:37.459Z,-4.30
2019-01-25T01:40:13.283Z,-4.30
2019-01-25T01:42:41.660Z,-4.30
2019-01-25T01:45:10.033Z,-4.30
2019-01-25T01:47:38.458Z,-4.30
2019-01-25T01:50:10.023Z,-4.30
2019-01-25T01:52:38.400Z,-4.30
2019-01-25T01:55:07.124Z,-4.40
2019-01-25T01:57:35.498Z,-4.40
2019-01-25T02:00:06.076Z,-4.40
2019-01-25T02:02:34.872Z,-4.40
2019-01-25T02:05:03.596Z,-4.40
2019-01-25T02:07:31.964Z,-4.40
2019-01-25T02:10:00.527Z,-4.50
2019-01-25T02:12:29.980Z,-4.50
2019-01-25T02:14:58.479Z,-4.50
2019-01-25T02:17:27.171Z,-4.50
2019-01-25T02:19:55.840Z,-4.50
2019-01-25T02:22:24.215Z,-4.50
2019-01-25T02:24:54.343Z,-4.50
2019-01-25T02:27:23.035Z,-4.50
2019-01-25T02:29:51.520Z,-4.60
2019-01-25T02:32:19.924Z,-4.50
2019-01-25T02:34:48.296Z,-4.50
2019-01-25T02:37:16.671Z,-4.50
2019-01-25T02:39:45.076Z,-4.50
2019-01-25T02:42:13.448Z,-4.50
2019-01-25T02:44:41.821Z,-4.60
2019-01-25T02:47:11.804Z,-4.60
2019-01-25T02:49:40.175Z,-4.50
2019-01-25T02:52:08.564Z,-4.50
2019-01-25T02:54:36.987Z,-4.40
2019-01-25T02:57:05.368Z,-4.50
2019-01-25T02:59:33.738Z,-4.50
2019-01-25T03:02:02.160Z,-4.50
2019-01-25T03:04:30.533Z,-4.50
2019-01-25T03:06:59.208Z,-4.50
2019-01-25T03:09:27.836Z,-4.50
2019-01-25T03:11:56.207Z,-4.50
2019-01-25T03:14:26.820Z,-4.50
2019-01-25T03:16:55.228Z,-4.50
2019-01-25T03:19:23.918Z,-4.50
2019-01-25T03:21:52.292Z,-4.50
2019-01-25T03:24:20.703Z,-4.50
2019-01-25T03:26:49.075Z,-4.50
2019-01-25T03:29:17.449Z,-4.50
2019-01-25T03:31:47.207Z,-4.60
2019-01-25T03:34:15.571Z,-4.50
2019-01-25T03:36:44.039Z,-4.50
2019-01-25T03:39:12.459Z,-4.50
2019-01-25T03:41:40.903Z,-4.50
2019-01-25T03:44:09.333Z,-4.50
2019-01-25T03:46:37.808Z,-4.50
2019-01-25T03:49:06.183Z,-4.50
2019-01-25T03:51:34.556Z,-4.50
2019-01-25T03:54:03.879Z,-4.50
2019-01-25T03:56:32.383Z,-4.50
2019-01-25T03:59:00.752Z,-4.50
2019-01-25T04:01:29.156Z,-4.50
2019-01-25T04:03:57.532Z,-4.50
2019-01-25T04:06:25.906Z,-4.50
2019-01-25T04:08:54.322Z,-4.50
2019-01-25T04:11:22.705Z,-4.50
2019-01-25T04:13:51.071Z,-4.50
2019-01-25T04:16:21.064Z,-4.40
2019-01-25T04:18:49.449Z,-4.40
2019-01-25T04:21:17.821Z,-4.40
2019-01-25T04:23:46.228Z,-4.40
2019-01-25T04:26:14.605Z,-4.50
2019-01-25T04:28:42.984Z,-4.50
2019-01-25T04:31:11.393Z,-4.50
2019-01-25T04:33:39.764Z,-4.50
2019-01-25T04:36:08.135Z,-4.60
2019-01-25T04:38:36.923Z,-4.50
2019-01-25T04:41:11.537Z,-4.50
2019-01-25T04:43:35.313Z,-4.50
2019-01-25T04:46:03.719Z,-4.40
2019-01-25T04:48:32.162Z,-4.40
2019-01-25T04:51:02.171Z,-4.40
2019-01-25T04:53:32.228Z,-4.50
2019-01-25T04:56:00.603Z,-4.40
2019-01-25T04:58:28.980Z,-4.40
2019-01-25T05:01:00.043Z,-4.40
2019-01-25T05:03:28.419Z,-4.50
2019-01-25T05:05:56.789Z,-4.50
2019-01-25T05:08:25.200Z,-4.50
2019-01-25T05:10:53.573Z,-4.50
2019-01-25T05:13:21.965Z,-4.50
2019-01-25T05:15:50.361Z,-4.50
2019-01-25T05:18:18.868Z,-4.50
2019-01-25T05:20:47.556Z,-4.40
2019-01-25T05:23:16.623Z,-4.50
2019-01-25T05:25:44.991Z,-4.40
2019-01-25T05:28:15.767Z,-4.40
2019-01-25T05:30:56.640Z,-4.40
2019-01-25T05:33:25.011Z,-4.40
2019-01-25T05:35:53.383Z,-4.50
2019-01-25T05:38:22.364Z,-4.50
2019-01-25T05:40:50.741Z,-4.50
2019-01-25T05:43:19.114Z,-4.50
2019-01-25T05:45:47.524Z,-4.60
2019-01-25T05:48:15.891Z,-4.50
2019-01-25T05:50:44.263Z,-4.50
2019-01-25T05:53:12.671Z,-4.40
2019-01-25T05:55:41.051Z,-4.40
2019-01-25T05:58:10.171Z,-4.40
2019-01-25T06:00:41.328Z,-4.40
2019-01-25T06:03:15.240Z,-4.40
2019-01-25T06:05:43.781Z,-4.40
2019-01-25T06:08:31.075Z,-4.40
2019-01-25T06:11:00.991Z,-4.40
2019-01-25T06:13:29.647Z,-4.30
2019-01-25T06:15:58.304Z,-4.30
2019-01-25T06:18:26.676Z,-4.30
2019-01-25T06:20:57.665Z,-4.30
2019-01-25T06:23:26.075Z,-4.30
2019-01-25T06:25:56.092Z,-4.30
2019-01-25T06:28:24.467Z,-4.30
2019-01-25T06:30:52.877Z,-4.30
2019-01-25T06:33:21.251Z,-4.30
2019-01-25T06:35:49.629Z,-4.40
2019-01-25T06:38:18.559Z,-4.30
2019-01-25T06:40:46.944Z,-4.30
2019-01-25T06:43:15.317Z,-4.30
2019-01-25T06:45:43.728Z,-4.30
2019-01-25T06:48:12.135Z,-4.30
2019-01-25T06:50:40.523Z,-4.30
2019-01-25T06:53:09.333Z,-4.30
2019-01-25T06:55:37.731Z,-4.30
2019-01-25T06:58:18.223Z,-4.30
2019-01-25T07:00:54.269Z,-4.30
2019-01-25T07:03:22.688Z,-4.30
2019-01-25T07:05:51.060Z,-4.40
2019-01-25T07:08:20.011Z,-4.40
2019-01-25T07:10:48.456Z,-4.40
2019-01-25T07:13:16.836Z,-4.30
2019-01-25T07:15:45.212Z,-4.40
2019-01-25T07:18:14.211Z,-4.40
2019-01-25T07:20:42.909Z,-4.40
2019-01-25T07:23:13.543Z,-4.40
2019-01-25T07:25:41.945Z,-4.50
2019-01-25T07:28:10.318Z,-4.50
2019-01-25T07:30:38.725Z,-4.60
2019-01-25T07:33:07.628Z,-4.60
2019-01-25T07:35:36.482Z,-4.70
2019-01-25T07:38:05.020Z,-4.70
2019-01-25T07:40:33.816Z,-4.70
2019-01-25T07:43:02.301Z,-4.80
2019-01-25T07:45:30.676Z,-4.80
2019-01-25T07:47:59.084Z,-4.80
2019-01-25T07:50:27.465Z,-4.90
2019-01-25T07:52:55.827Z,-4.90
2019-01-25T07:55:24.236Z,-4.90
2019-01-25T07:57:52.634Z,-4.90
2019-01-25T08:00:21.000Z,-4.90
2019-01-25T08:02:50.612Z,-4.90
2019-01-25T08:05:18.992Z,-4.90
2019-01-25T08:07:47.348Z,-5.00
2019-01-25T08:10:22.894Z,-5.00
2019-01-25T08:12:51.264Z,-5.00
2019-01-25T08:15:24.869Z,-5.00
2019-01-25T08:17:53.901Z,-5.10
2019-01-25T08:20:22.271Z,-5.20
2019-01-25T08:22:50.682Z,-5.20
2019-01-25T08:25:20.803Z,-5.20
2019-01-25T08:27:49.183Z,-5.20
2019-01-25T08:30:22.178Z,-5.20
2019-01-25T08:32:51.008Z,-5.20
2019-01-25T08:35:19.416Z,-5.30
2019-01-25T08:37:47.929Z,-5.30
2019-01-25T08:40:18.245Z,-5.30
2019-01-25T08:42:46.588Z,-5.30
2019-01-25T08:45:16.197Z,-5.20
2019-01-25T08:47:44.688Z,-5.20
2019-01-25T08:50:18.987Z,-5.20
2019-01-25T08:52:47.430Z,-5.20
2019-01-25T08:55:16.388Z,-5.20
2019-01-25T08:57:44.813Z,-5.10
2019-01-25T09:00:16.079Z,-5.10
2019-01-25T09:02:46.244Z,-5.10
2019-01-25T09:05:14.956Z,-5.00
2019-01-25T09:07:43.325Z,-5.00
2019-01-25T09:10:14.069Z,-5.00
2019-01-25T09:12:42.445Z,-5.00
2019-01-25T09:15:19.650Z,-5.00
2019-01-25T09:17:48.019Z,-5.10
2019-01-25T09:20:19.222Z,-5.10
2019-01-25T09:22:48.700Z,-5.10
2019-01-25T09:25:17.214Z,-5.10
2019-01-25T09:27:46.451Z,-5.00
2019-01-25T09:30:23.419Z,-5.00
2019-01-25T09:32:51.800Z,-5.00
2019-01-25T09:35:20.169Z,-5.00
2019-01-25T09:37:49.479Z,-5.00
2019-01-25T09:40:21.533Z,-5.00
2019-01-25T09:42:50.243Z,-4.90
2019-01-25T09:45:18.660Z,-4.90
2019-01-25T09:47:47.633Z,-4.90
2019-01-25T09:50:20.495Z,-4.80
2019-01-25T09:52:48.910Z,-4.80
2019-01-25T09:55:19.525Z,-4.80
2019-01-25T09:57:48.167Z,-4.70
2019-01-25T10:00:29.895Z,-4.70
2019-01-25T10:02:58.268Z,-4.70
2019-01-25T10:05:26.653Z,-4.60
2019-01-25T10:07:55.059Z,-4.60
2019-01-25T10:10:23.431Z,-4.60
2019-01-25T10:12:51.804Z,-4.60
2019-01-25T10:15:24.019Z,-4.60
2019-01-25T10:17:52.424Z,-4.50
2019-01-25T10:20:20.864Z,-4.30
2019-01-25T10:22:49.500Z,-4.20
2019-01-25T10:25:17.863Z,-3.90
2019-01-25T10:27:47.227Z,-3.70
2019-01-25T10:30:19.249Z,-3.60
2019-01-25T10:32:47.620Z,-3.60
2019-01-25T10:35:15.996Z,-3.50
2019-01-25T10:37:44.415Z,-3.50
2019-01-25T10:40:15.227Z,-3.70
2019-01-25T10:42:45.526Z,-3.70
2019-01-25T10:45:26.431Z,-3.60
2019-01-25T10:47:55.163Z,-3.60
2019-01-25T10:50:23.535Z,-3.70
2019-01-25T10:52:52.234Z,-3.60
2019-01-25T10:55:20.922Z,-3.40
2019-01-25T10:57:49.292Z,-3.20
2019-01-25T11:02:42.404Z,-3.00
2019-01-25T11:05:13.715Z,-3.20
2019-01-25T11:07:42.095Z,-3.10
2019-01-25T11:10:10.518Z,-3.30
2019-01-25T11:12:39.191Z,-3.10
2019-01-25T11:15:10.967Z,-3.00
2019-01-25T11:17:39.383Z,-2.80
2019-01-25T11:20:16.176Z,-2.60
2019-01-25T11:22:45.479Z,-2.40
2019-01-25T11:25:19.638Z,-2.60
2019-01-25T11:27:48.119Z,-2.80
2019-01-25T11:30:17.091Z,-2.80
2019-01-25T11:32:46.841Z,-2.70
2019-01-25T11:35:15.517Z,-2.90
2019-01-25T11:37:43.925Z,-2.90
2019-01-25T11:40:18.455Z,-2.70
2019-01-25T11:42:46.823Z,-2.60
2019-01-25T11:45:15.975Z,-2.60
2019-01-25T11:47:44.363Z,-2.50
2019-01-25T11:50:18.106Z,-2.40
2019-01-25T11:52:46.813Z,-2.40
2019-01-25T11:55:17.587Z,-2.30
2019-01-25T11:57:46.053Z,-2.30
2019-01-25T12:00:22.643Z,-2.40
2019-01-25T12:02:51.015Z,-2.50
2019-01-25T12:05:21.025Z,-2.50
2019-01-25T12:07:49.442Z,-2.40
2019-01-25T12:10:26.485Z,-2.50
2019-01-25T12:12:55.260Z,-2.40
2019-01-25T12:15:23.627Z,-2.40
2019-01-25T12:17:52.004Z,-2.30
2019-01-25T12:20:24.000Z,-2.30
2019-01-25T12:22:52.371Z,-2.40
2019-01-25T12:25:20.746Z,-2.50
2019-01-25T12:27:49.148Z,-2.50
2019-01-25T12:30:20.783Z,-2.30
2019-01-25T12:32:49.164Z,-2.30
2019-01-25T12:35:18.120Z,-2.30
2019-01-25T12:37:46.488Z,-2.30
2019-01-25T12:40:19.343Z,-2.20
2019-01-25T12:42:48.292Z,-2.10
2019-01-25T12:45:19.696Z,-1.90
2019-01-25T12:47:48.067Z,-2.00
2019-01-25T12:50:19.699Z,-2.00
2019-01-25T12:52:48.071Z,-2.00
2019-01-25T12:55:16.447Z,-1.90
2019-01-25T12:57:44.872Z,-2.00
2019-01-25T13:00:16.244Z,-2.10
2019-01-25T13:02:44.620Z,-2.00
2019-01-25T13:05:16.579Z,-1.90
2019-01-25T13:07:44.946Z,-2.00
2019-01-25T13:10:18.916Z,-2.00
2019-01-25T13:12:47.327Z,-2.00
2019-01-25T13:15:15.756Z,-2.00
2019-01-25T13:17:44.340Z,-2.00
2019-01-25T13:20:19.340Z,-1.90
2019-01-25T13:22:47.720Z,-1.90
2019-01-25T13:25:16.159Z,-1.90
2019-01-25T13:27:44.564Z,-1.90
2019-01-25T13:30:19.470Z,-1.90
2019-01-25T13:32:47.880Z,-1.90
2019-01-25T13:35:16.503Z,-2.00
2019-01-25T13:37:45.907Z,-2.10
2019-01-25T13:40:19.619Z,-2.10
2019-01-25T13:42:49.075Z,-2.10
2019-01-25T13:45:19.241Z,-2.20
2019-01-25T13:47:47.792Z,-2.20
2019-01-25T13:50:21.268Z,-2.20
2019-01-25T13:52:49.639Z,-2.10
2019-01-25T13:55:18.127Z,-2.10
2019-01-25T13:57:46.544Z,-2.10
2019-01-25T14:00:22.815Z,-2.10
2019-01-25T14:02:51.524Z,-2.10
2019-01-25T14:05:19.896Z,-2.10
2019-01-25T14:07:48.272Z,-2.10
2019-01-25T14:10:19.779Z,-2.00
2019-01-25T14:12:48.441Z,-2.00
2019-01-25T14:15:16.815Z,-1.90
2019-01-25T14:17:45.229Z,-2.00
2019-01-25T14:20:23.357Z,-2.00
2019-01-25T14:22:52.719Z,-1.90
2019-01-25T14:25:21.171Z,-1.90
2019-01-25T14:27:49.544Z,-1.80
2019-01-25T14:30:29.475Z,-1.80
2019-01-25T14:32:57.847Z,-1.80
2019-01-25T14:35:26.217Z,-1.80
2019-01-25T14:37:55.668Z,-1.70
2019-01-25T14:40:25.020Z,-1.80
2019-01-25T14:42:53.391Z,-1.80
2019-01-25T14:45:21.810Z,-1.70
2019-01-25T14:47:50.180Z,-1.80
2019-01-25T14:50:26.832Z,-1.70
2019-01-25T14:52:55.207Z,-1.70
2019-01-25T14:55:23.578Z,-1.70
2019-01-25T14:57:52.659Z,-1.70
2019-01-25T15:00:21.032Z,-1.70
2019-01-25T15:02:49.405Z,-1.70
2019-01-25T15:05:19.259Z,-1.60
2019-01-25T15:07:47.623Z,-1.60
2019-01-25T15:10:17.837Z,-1.50
2019-01-25T15:12:46.475Z,-1.50
2019-01-25T15:15:15.191Z,-1.50
2019-01-25T15:17:43.891Z,-1.50
2019-01-25T15:20:19.881Z,-1.50
2019-01-25T15:22:48.334Z,-1.50
2019-01-25T15:25:16.700Z,-1.50
2019-01-25T15:27:45.467Z,-1.50
2019-01-25T15:30:19.027Z,-1.50
2019-01-25T15:32:47.767Z,-1.50
2019-01-25T15:35:17.629Z,-1.50
2019-01-25T15:37:46.395Z,-1.50
2019-01-25T15:40:16.600Z,-1.40
2019-01-25T15:42:46.513Z,-1.40
2019-01-25T15:45:16.923Z,-1.40
2019-01-25T15:47:45.460Z,-1.40
2019-01-25T15:50:25.035Z,-1.40
2019-01-25T15:52:53.417Z,-1.40
2019-01-25T15:55:21.787Z,-1.50
2019-01-25T15:57:51.243Z,-1.40
2019-01-25T16:00:21.867Z,-1.40
2019-01-25T16:02:50.254Z,-1.40
2019-01-25T16:05:19.600Z,-1.40
2019-01-25T16:07:49.752Z,-1.50
2019-01-25T16:10:20.007Z,-1.50
2019-01-25T16:12:48.579Z,-1.50
2019-01-25T16:15:25.886Z,-1.50
2019-01-25T16:17:55.062Z,-1.40
2019-01-25T16:20:23.523Z,-1.40
2019-01-25T16:22:53.521Z,-1.40
2019-01-25T16:25:25.039Z,-1.40
2019-01-25T16:27:53.740Z,-1.40
2019-01-25T16:30:24.556Z,-1.50
2019-01-25T16:32:52.965Z,-1.50
2019-01-25T16:35:21.343Z,-1.50
2019-01-25T16:37:49.710Z,-1.50
2019-01-25T16:40:21.944Z,-1.60
2019-01-25T16:42:50.316Z,-1.60
2019-01-25T16:45:23.107Z,-1.60
2019-01-25T16:47:51.517Z,-1.60
2019-01-25T16:50:23.917Z,-1.60
2019-01-25T16:52:49.931Z,-1.60
2019-01-25T16:55:18.339Z,-1.60
2019-01-25T16:57:46.719Z,-1.50
2019-01-25T17:00:21.079Z,-1.50
2019-01-25T17:02:50.308Z,-1.50
2019-01-25T17:05:18.688Z,-1.50
2019-01-25T17:07:47.149Z,-1.50
2019-01-25T17:10:15.933Z,-1.50
2019-01-25T17:12:44.380Z,-1.40
2019-01-25T17:15:14.989Z,-1.40
2019-01-25T17:17:43.407Z,-1.40
2019-01-25T17:20:21.066Z,-1.30
2019-01-25T17:22:44.791Z,-1.30
2019-01-25T17:25:14.758Z,-1.30
2019-01-25T17:27:43.123Z,-1.30
2019-01-25T17:30:17.636Z,-1.30
2019-01-25T17:32:46.069Z,-1.30
2019-01-25T17:35:14.443Z,-1.30
2019-01-25T17:37:42.819Z,-1.20
2019-01-25T17:40:14.811Z,-1.20
2019-01-25T17:42:43.188Z,-1.20
2019-01-25T17:45:12.405Z,-1.10
2019-01-25T17:47:41.983Z,-1.10
2019-01-25T17:50:13.171Z,-1.00
2019-01-25T17:52:41.557Z,-1.00
2019-01-25T17:55:15.155Z,-1.00
2019-01-25T17:57:43.840Z,-1.00
2019-01-25T18:00:25.219Z,-0.90
2019-01-25T18:02:53.607Z,-0.90
2019-01-25T18:05:22.024Z,-0.80
2019-01-25T18:07:52.156Z,-0.80
2019-01-25T18:10:22.663Z,-0.80
2019-01-25T18:12:51.202Z,-0.80
2019-01-25T18:15:19.635Z,-0.80
2019-01-25T18:17:48.018Z,-0.90
2019-01-25T18:20:18.458Z,-0.90
2019-01-25T18:22:46.867Z,-0.90
2019-01-25T18:25:18.907Z,-0.90
2019-01-25T18:27:58.016Z,-1.00
2019-01-25T18:30:38.399Z,-1.00
2019-01-25T18:33:06.814Z,-1.00
2019-01-25T18:35:35.183Z,-1.10
2019-01-25T18:38:03.740Z,-1.10
2019-01-25T18:40:32.524Z,-1.10
2019-01-25T18:43:00.897Z,-1.10
2019-01-25T18:45:29.263Z,-1.10
2019-01-25T18:47:58.838Z,-1.10
2019-01-25T18:50:28.613Z,-1.10
2019-01-25T18:52:57.011Z,-1.10
2019-01-25T18:55:26.089Z,-1.10
2019-01-25T18:57:54.459Z,-1.10
2019-01-25T19:00:23.141Z,-1.20
2019-01-25T19:02:51.547Z,-1.20
2019-01-25T19:05:19.928Z,-1.20
2019-01-25T19:07:48.299Z,-1.20
2019-01-25T19:10:22.831Z,-1.20
2019-01-25T19:12:51.208Z,-1.20
2019-01-25T19:15:25.218Z,-1.20
2019-01-25T19:17:53.684Z,-1.20
2019-01-25T19:20:22.055Z,-1.20
2019-01-25T19:22:50.431Z,-1.20
2019-01-25T19:25:18.848Z,-1.20
2019-01-25T19:27:47.631Z,-1.20
2019-01-25T19:30:32.659Z,-1.20
2019-01-25T19:33:01.031Z,-1.10
2019-01-25T19:35:29.772Z,-1.20
2019-01-25T19:37:58.628Z,-1.10
2019-01-25T19:40:29.639Z,-1.10
2019-01-25T19:42:58.024Z,-1.10
2019-01-25T19:45:26.431Z,-1.10
2019-01-25T19:47:54.804Z,-1.10
2019-01-25T19:50:23.175Z,-1.10
2019-01-25T19:52:55.071Z,-1.10
2019-01-25T19:55:26.356Z,-0.90
2019-01-25T19:57:54.728Z,-0.80
2019-01-25T20:00:28.759Z,-0.90
2019-01-25T20:02:57.134Z,-0.90
2019-01-25T20:05:27.943Z,-0.90
2019-01-25T20:07:57.407Z,-1.00
2019-01-25T20:10:25.779Z,-1.00
2019-01-25T20:12:54.451Z,-0.90
2019-01-25T20:15:26.770Z,-1.00
2019-01-25T20:17:55.147Z,-1.00
2019-01-25T20:20:32.828Z,-0.90
2019-01-25T20:23:01.199Z,-0.90
2019-01-25T20:25:29.579Z,-0.90
2019-01-25T20:27:58.423Z,-0.90
2019-01-25T20:30:28.831Z,-0.90
2019-01-25T20:32:57.452Z,-0.90
2019-01-25T20:35:34.921Z,-0.90
2019-01-25T20:38:03.292Z,-0.90
2019-01-25T20:40:31.671Z,-0.80
2019-01-25T20:43:01.207Z,-0.80
2019-01-25T20:45:32.116Z,-0.80
2019-01-25T20:48:00.477Z,-0.80
2019-01-25T20:50:33.372Z,-0.80
2019-01-25T20:53:01.752Z,-0.70
2019-01-25T20:55:30.840Z,-0.70
2019-01-25T20:57:59.715Z,-0.70
2019-01-25T21:00:30.920Z,-0.70
2019-01-25T21:02:59.272Z,-0.70
2019-01-25T21:05:28.733Z,-0.70
2019-01-25T21:07:57.103Z,-0.70
2019-01-25T21:10:26.111Z,-0.70
2019-01-25T21:12:54.936Z,-0.60
2019-01-25T21:15:25.348Z,-0.60
2019-01-25T21:17:54.079Z,-0.60
2019-01-25T21:20:28.168Z,-0.60
2019-01-25T21:22:56.865Z,-0.50
2019-01-25T21:25:25.588Z,-0.50
2019-01-25T21:27:54.414Z,-0.60
2019-01-25T21:30:31.120Z,-0.60
2019-01-25T21:32:59.527Z,-0.50
2019-01-25T21:35:27.900Z,-0.50
2019-01-25T21:37:56.271Z,-0.50
2019-01-25T21:40:26.828Z,-0.50
2019-01-25T21:42:55.204Z,-0.50
2019-01-25T21:45:25.623Z,-0.40
2019-01-25T21:47:55.085Z,-0.40
2019-01-25T21:50:26.683Z,-0.40
2019-01-25T21:52:55.032Z,-0.40
2019-01-25T21:55:23.474Z,-0.40
2019-01-25T21:57:52.122Z,-0.40
2019-01-25T22:00:29.628Z,-0.40
2019-01-25T22:02:58.315Z,-0.30
2019-01-25T22:05:26.687Z,-0.30
2019-01-25T22:07:56.584Z,-0.30
2019-01-25T22:10:33.776Z,-0.40
2019-01-25T22:13:03.900Z,-0.30
2019-01-25T22:15:32.276Z,-0.30
2019-01-25T22:18:00.998Z,-0.30
2019-01-25T22:20:30.451Z,-0.30
2019-01-25T22:22:58.823Z,-0.30
2019-01-25T22:25:27.503Z,-0.30
2019-01-25T22:27:57.047Z,-0.30
2019-01-25T22:30:27.255Z,-0.20
2019-01-25T22:32:55.633Z,-0.20
2019-01-25T22:35:24.039Z,-0.20
2019-01-25T22:37:53.291Z,-0.20
2019-01-25T22:40:24.377Z,-0.10
2019-01-25T22:42:52.870Z,-0.10
2019-01-25T22:45:23.540Z,-0.10
2019-01-25T22:47:52.235Z,-0.10
2019-01-25T22:50:26.719Z,-0.10
2019-01-25T22:52:55.086Z,-0.10
2019-01-25T22:55:24.208Z,0.00
2019-01-25T22:57:52.630Z,0.00
2019-01-25T23:00:50.767Z,0.00
2019-01-25T23:03:25.053Z,0.00
2019-01-25T23:06:17.863Z,0.00
2019-01-25T23:08:47.727Z,0.00
2019-01-25T23:11:16.452Z,0.10
2019-01-25T23:13:44.820Z,0.00
2019-01-25T23:16:13.219Z,0.10
2019-01-25T23:18:41.589Z,0.10
2019-01-25T23:21:09.960Z,0.10
2019-01-25T23:23:38.379Z,0.10
2019-01-25T23:26:06.783Z,0.10
2019-01-25T23:28:35.151Z,0.10
2019-01-25T23:31:03.686Z,0.10
2019-01-25T23:33:32.057Z,0.20
2019-01-25T23:36:00.470Z,0.20
2019-01-25T23:38:28.927Z,0.20
2019-01-25T23:40:57.292Z,0.20
2019-01-25T23:43:25.655Z,0.30
2019-01-25T23:45:54.428Z,0.30
2019-01-25T23:48:22.795Z,0.30
2019-01-25T23:50:51.163Z,0.30
2019-01-25T23:53:20.871Z,0.30
2019-01-25T23:55:49.233Z,0.30
2019-01-25T23:58:17.602Z,0.40
